createdAt,value
2022-08-03T00:01:49.245Z,27.02
2022-08-03T00:04:19.176Z,27.00
2022-08-03T00:06:49.144Z,26.96
2022-08-03T00:09:19.012Z,26.97
2022-08-03T00:11:48.900Z,26.96
2022-08-03T00:14:25.876Z,26.93
2022-08-03T00:16:55.828Z,26.93
2022-08-03T00:19:25.669Z,26.93
2022-08-03T00:21:55.548Z,26.93
2022-08-03T00:24:25.483Z,26.92
2022-08-03T00:26:55.397Z,26.91
2022-08-03T00:29:28.167Z,26.93
2022-08-03T00:31:59.556Z,26.95
2022-08-03T00:34:54.310Z,26.94
2022-08-03T00:37:21.480Z,26.94
2022-08-03T00:40:13.696Z,26.92
2022-08-03T00:42:51.405Z,26.91
2022-08-03T00:45:25.704Z,26.89
2022-08-03T00:47:56.332Z,26.88
2022-08-03T00:50:28.312Z,26.85
2022-08-03T00:53:01.053Z,26.85
2022-08-03T00:55:31.010Z,26.86
2022-08-03T00:58:07.416Z,26.86
2022-08-03T01:00:41.607Z,26.84
2022-08-03T01:03:12.920Z,26.86
2022-08-03T01:05:52.556Z,26.84
2022-08-03T01:08:31.205Z,26.84
2022-08-03T01:11:09.525Z,26.83
2022-08-03T01:14:02.047Z,26.82
2022-08-03T01:16:47.465Z,26.83
2022-08-03T01:19:35.130Z,26.80
2022-08-03T01:22:20.318Z,26.80
2022-08-03T01:25:00.197Z,26.79
2022-08-03T01:27:40.428Z,26.76
2022-08-03T01:30:14.952Z,26.74
2022-08-03T01:33:00.900Z,26.70
2022-08-03T01:35:38.687Z,26.68
2022-08-03T01:38:14.872Z,26.66
2022-08-03T01:40:47.157Z,26.65
2022-08-03T01:43:55.331Z,26.63
2022-08-03T01:46:14.507Z,26.63
2022-08-03T01:48:46.149Z,26.61
2022-08-03T01:51:19.689Z,26.60
2022-08-03T01:53:52.319Z,26.58
2022-08-03T01:56:25.164Z,26.58
2022-08-03T01:58:57.039Z,26.58
2022-08-03T02:02:16.013Z,26.59
2022-08-03T02:04:22.288Z,26.56
2022-08-03T02:07:02.356Z,26.55
2022-08-03T02:09:34.447Z,26.52
2022-08-03T02:12:05.015Z,26.51
2022-08-03T02:14:34.957Z,26.50
2022-08-03T02:17:08.279Z,26.49
2022-08-03T02:19:39.695Z,26.48
2022-08-03T02:22:13.809Z,26.48
2022-08-03T02:24:44.517Z,26.48
2022-08-03T02:27:24.341Z,26.45
2022-08-03T02:29:58.189Z,26.45
2022-08-03T02:32:34.121Z,26.43
2022-08-03T02:35:06.669Z,26.42
2022-08-03T02:37:42.922Z,26.44
2022-08-03T02:40:16.915Z,26.46
2022-08-03T02:42:49.296Z,26.48
2022-08-03T02:45:21.010Z,26.49
2022-08-03T02:47:58.230Z,26.48
2022-08-03T02:50:30.439Z,26.47
2022-08-03T02:53:03.014Z,26.46
2022-08-03T02:55:34.467Z,26.45
2022-08-03T02:58:06.437Z,26.43
2022-08-03T03:00:37.610Z,26.44
2022-08-03T03:03:11.234Z,26.44
2022-08-03T03:05:56.074Z,26.42
2022-08-03T03:08:29.335Z,26.44
2022-08-03T03:11:02.501Z,26.44
2022-08-03T03:13:33.886Z,26.43
2022-08-03T03:16:05.810Z,26.43
2022-08-03T03:18:40.677Z,26.43
2022-08-03T03:21:12.529Z,26.43
2022-08-03T03:23:44.249Z,26.42
2022-08-03T03:26:16.774Z,26.40
2022-08-03T03:28:47.205Z,26.39
2022-08-03T03:31:17.324Z,26.39
2022-08-03T03:33:50.399Z,26.36
2022-08-03T03:36:21.278Z,26.35
2022-08-03T03:38:51.342Z,26.33
2022-08-03T03:41:23.745Z,26.30
2022-08-03T03:43:53.820Z,26.27
2022-08-03T03:46:23.794Z,26.24
2022-08-03T03:48:56.438Z,26.22
2022-08-03T03:51:26.352Z,26.22
2022-08-03T03:53:59.862Z,26.20
2022-08-03T03:56:30.272Z,26.19
2022-08-03T03:59:00.169Z,26.17
2022-08-03T04:01:30.066Z,26.16
2022-08-03T04:04:23.932Z,26.19
2022-08-03T04:07:06.373Z,26.22
2022-08-03T04:09:51.472Z,26.21
2022-08-03T04:12:23.787Z,26.22
2022-08-03T04:14:57.696Z,26.24
2022-08-03T04:17:31.231Z,26.23
2022-08-03T04:20:06.325Z,26.23
2022-08-03T04:22:37.299Z,26.21
2022-08-03T04:25:12.196Z,26.23
2022-08-03T04:27:44.475Z,26.27
2022-08-03T04:30:38.869Z,26.31
2022-08-03T04:33:09.795Z,26.32
2022-08-03T04:35:54.756Z,26.34
2022-08-03T04:38:34.340Z,26.38
2022-08-03T04:41:04.740Z,26.39
2022-08-03T04:43:36.543Z,26.43
2022-08-03T04:46:11.100Z,26.48
2022-08-03T04:48:44.705Z,26.54
2022-08-03T04:51:18.010Z,26.57
2022-08-03T04:53:47.912Z,26.62
2022-08-03T04:56:17.772Z,26.65
2022-08-03T04:58:47.884Z,26.70
2022-08-03T05:01:20.474Z,26.73
2022-08-03T05:03:50.531Z,26.76
2022-08-03T05:06:25.094Z,26.81
2022-08-03T05:08:55.223Z,26.85
2022-08-03T05:11:26.296Z,26.85
2022-08-03T05:13:56.238Z,26.88
2022-08-03T05:16:26.035Z,26.93
2022-08-03T05:18:55.903Z,26.99
2022-08-03T05:21:41.738Z,27.01
2022-08-03T05:24:19.185Z,27.08
2022-08-03T05:26:49.031Z,27.12
2022-08-03T05:29:18.941Z,27.17
2022-08-03T05:31:48.739Z,27.23
2022-08-03T05:34:18.615Z,27.29
2022-08-03T05:36:51.065Z,27.36
2022-08-03T05:39:20.946Z,27.44
2022-08-03T05:41:50.728Z,27.47
2022-08-03T05:44:20.589Z,27.54
2022-08-03T05:46:50.749Z,27.60
2022-08-03T05:49:20.782Z,27.62
2022-08-03T05:52:00.098Z,27.68
2022-08-03T05:54:53.836Z,27.77
2022-08-03T05:57:27.629Z,27.86
2022-08-03T05:59:58.836Z,27.94
2022-08-03T06:02:28.943Z,28.01
2022-08-03T06:04:59.231Z,28.09
2022-08-03T06:07:32.053Z,28.17
2022-08-03T06:10:35.857Z,28.26
2022-08-03T06:12:53.013Z,28.33
2022-08-03T06:15:23.913Z,28.40
2022-08-03T06:18:01.467Z,28.50
2022-08-03T06:20:32.241Z,28.56
2022-08-03T06:23:04.874Z,28.64
2022-08-03T06:25:37.454Z,28.74
2022-08-03T06:28:19.087Z,28.83
2022-08-03T06:30:58.984Z,28.92
2022-08-03T06:34:30.197Z,28.90
2022-08-03T06:36:18.970Z,28.92
2022-08-03T06:38:51.569Z,28.92
2022-08-03T06:41:21.382Z,29.00
2022-08-03T06:44:03.230Z,29.06
2022-08-03T06:46:34.235Z,29.14
2022-08-03T06:49:04.322Z,29.17
2022-08-03T06:52:03.966Z,29.24
2022-08-03T06:54:27.137Z,29.38
2022-08-03T06:56:57.699Z,29.49
2022-08-03T07:00:07.495Z,29.60
2022-08-03T07:02:19.251Z,29.74
2022-08-03T07:04:52.595Z,29.74
2022-08-03T07:07:22.573Z,29.74
2022-08-03T07:09:56.577Z,29.80
2022-08-03T07:12:29.661Z,29.87
2022-08-03T07:15:03.579Z,29.97
2022-08-03T07:17:36.277Z,29.98
2022-08-03T07:20:09.580Z,29.98
2022-08-03T07:22:39.500Z,30.04
2022-08-03T07:25:12.883Z,30.08
2022-08-03T07:27:51.420Z,30.07
2022-08-03T07:30:21.669Z,30.16
2022-08-03T07:32:51.741Z,30.24
2022-08-03T07:35:24.402Z,30.29
2022-08-03T07:37:55.333Z,30.38
2022-08-03T07:40:31.885Z,30.47
2022-08-03T07:43:03.434Z,30.57
2022-08-03T07:45:34.365Z,30.66
2022-08-03T07:48:07.587Z,30.71
2022-08-03T07:50:41.592Z,30.76
2022-08-03T07:53:11.574Z,30.75
2022-08-03T07:55:44.181Z,30.76
2022-08-03T07:58:19.197Z,30.82
2022-08-03T08:00:53.307Z,30.73
2022-08-03T08:03:23.597Z,30.89
2022-08-03T08:05:53.682Z,31.02
2022-08-03T08:08:23.848Z,31.11
2022-08-03T08:10:58.636Z,31.16
2022-08-03T08:13:28.826Z,31.23
2022-08-03T08:15:58.771Z,31.22
2022-08-03T08:18:29.637Z,31.29
2022-08-03T08:21:01.602Z,31.34
2022-08-03T08:23:42.336Z,31.44
2022-08-03T08:26:16.496Z,31.57
2022-08-03T08:28:46.342Z,31.61
2022-08-03T08:31:16.282Z,31.63
2022-08-03T08:34:03.770Z,31.68
2022-08-03T08:36:35.251Z,31.73
2022-08-03T08:39:05.282Z,31.79
2022-08-03T08:41:37.888Z,31.72
2022-08-03T08:44:15.725Z,31.76
2022-08-03T08:46:46.848Z,31.82
2022-08-03T08:49:21.392Z,31.89
2022-08-03T08:52:00.484Z,32.01
2022-08-03T08:54:34.209Z,32.11
2022-08-03T08:57:26.613Z,32.16
2022-08-03T09:00:02.298Z,32.21
2022-08-03T09:02:34.358Z,32.28
2022-08-03T09:05:07.540Z,32.30
2022-08-03T09:07:38.153Z,32.37
2022-08-03T09:10:13.318Z,32.45
2022-08-03T09:12:49.563Z,32.52
2022-08-03T09:15:21.658Z,32.57
2022-08-03T09:17:51.696Z,32.48
2022-08-03T09:20:24.818Z,32.62
2022-08-03T09:22:57.273Z,32.65
2022-08-03T09:25:32.616Z,32.76
2022-08-03T09:28:13.347Z,32.88
2022-08-03T09:31:03.607Z,33.09
2022-08-03T09:33:35.960Z,33.26
2022-08-03T09:36:06.751Z,33.38
2022-08-03T09:38:37.448Z,33.47
2022-08-03T09:41:21.033Z,33.61
2022-08-03T09:43:57.074Z,33.77
2022-08-03T09:46:28.558Z,33.96
2022-08-03T09:49:12.183Z,34.10
2022-08-03T09:52:32.934Z,34.13
2022-08-03T09:54:34.344Z,34.24
2022-08-03T09:57:05.322Z,34.31
2022-08-03T09:59:41.204Z,34.50
2022-08-03T10:02:24.434Z,34.59
2022-08-03T10:04:55.436Z,34.72
2022-08-03T10:07:27.394Z,34.77
2022-08-03T10:10:30.916Z,34.79
2022-08-03T10:12:49.297Z,34.81
2022-08-03T10:16:23.237Z,34.83
2022-08-03T10:18:26.467Z,34.83
2022-08-03T10:20:58.183Z,34.74
2022-08-03T10:23:33.167Z,34.72
2022-08-03T10:26:06.772Z,34.73
2022-08-03T10:28:44.963Z,34.77
2022-08-03T10:31:21.199Z,34.75
2022-08-03T10:33:54.851Z,34.85
2022-08-03T10:36:26.795Z,34.81
2022-08-03T10:38:59.066Z,34.72
2022-08-03T10:41:33.997Z,34.69
2022-08-03T10:44:08.527Z,34.72
2022-08-03T10:46:44.919Z,34.74
2022-08-03T10:49:31.836Z,34.77
2022-08-03T10:52:12.753Z,34.82
2022-08-03T10:55:10.007Z,34.96
2022-08-03T10:57:58.804Z,35.04
2022-08-03T11:00:30.728Z,35.04
2022-08-03T11:03:12.003Z,35.12
2022-08-03T11:05:44.124Z,35.14
2022-08-03T11:08:31.911Z,35.20
2022-08-03T11:11:04.773Z,35.30
2022-08-03T11:13:34.831Z,35.34
2022-08-03T11:16:22.375Z,35.36
2022-08-03T11:19:05.907Z,35.40
2022-08-03T11:21:57.956Z,35.40
2022-08-03T11:25:09.587Z,35.37
2022-08-03T11:28:29.325Z,35.34
2022-08-03T11:31:51.892Z,35.29
2022-08-03T11:34:24.839Z,35.44
2022-08-03T11:37:31.407Z,35.40
2022-08-03T11:40:03.612Z,35.48
2022-08-03T11:42:45.243Z,35.45
2022-08-03T11:45:15.721Z,35.52
2022-08-03T11:47:50.098Z,35.54
2022-08-03T11:50:24.533Z,35.58
2022-08-03T11:52:54.493Z,35.63
2022-08-03T11:55:27.841Z,35.68
2022-08-03T11:59:15.241Z,35.74
2022-08-03T12:00:52.785Z,35.68
2022-08-03T12:03:23.809Z,35.62
2022-08-03T12:05:57.048Z,35.64
2022-08-03T12:08:34.947Z,35.70
2022-08-03T12:11:07.372Z,35.79
2022-08-03T12:14:44.394Z,35.78
2022-08-03T12:16:34.980Z,35.86
2022-08-03T12:19:06.967Z,35.86
2022-08-03T12:21:56.615Z,35.76
2022-08-03T12:24:29.567Z,35.66
2022-08-03T12:26:59.979Z,35.46
2022-08-03T12:29:30.152Z,35.40
2022-08-03T12:32:00.157Z,35.40
2022-08-03T12:34:51.169Z,35.41
2022-08-03T12:37:25.971Z,35.46
2022-08-03T12:40:01.699Z,35.45
2022-08-03T12:42:35.115Z,35.46
2022-08-03T12:45:23.566Z,35.48
2022-08-03T12:47:55.508Z,35.54
2022-08-03T12:50:32.986Z,35.52
2022-08-03T12:53:09.021Z,35.39
2022-08-03T12:55:57.753Z,35.33
2022-08-03T12:58:36.246Z,35.22
2022-08-03T13:01:09.797Z,35.17
2022-08-03T13:03:49.823Z,35.06
2022-08-03T13:06:22.598Z,35.12
2022-08-03T13:09:07.595Z,35.07
2022-08-03T13:11:55.427Z,35.10
2022-08-03T13:14:27.864Z,35.01
2022-08-03T13:16:57.706Z,35.02
2022-08-03T13:19:27.668Z,35.06
2022-08-03T13:22:03.450Z,35.08
2022-08-03T13:24:37.364Z,35.08
2022-08-03T13:28:13.769Z,35.12
2022-08-03T13:29:57.693Z,35.15
2022-08-03T13:32:27.816Z,35.19
2022-08-03T13:34:57.717Z,35.19
2022-08-03T13:37:27.988Z,35.14
2022-08-03T13:40:02.561Z,35.06
2022-08-03T13:42:34.426Z,35.06
2022-08-03T13:45:05.246Z,35.07
2022-08-03T13:47:35.252Z,35.06
2022-08-03T13:50:05.202Z,35.05
2022-08-03T13:52:37.215Z,35.04
2022-08-03T13:55:11.029Z,35.01
2022-08-03T13:58:04.730Z,35.02
2022-08-03T14:00:31.039Z,34.97
2022-08-03T14:03:09.203Z,34.97
2022-08-03T14:05:43.529Z,34.95
2022-08-03T14:08:14.933Z,34.96
2022-08-03T14:10:48.221Z,34.96
2022-08-03T14:13:18.368Z,34.98
2022-08-03T14:15:50.107Z,34.98
2022-08-03T14:18:28.322Z,34.99
2022-08-03T14:21:05.509Z,34.96
2022-08-03T14:23:36.917Z,34.89
2022-08-03T14:26:10.169Z,34.89
2022-08-03T14:28:40.302Z,34.87
2022-08-03T14:32:08.994Z,34.82
2022-08-03T14:34:00.700Z,34.77
2022-08-03T14:36:30.592Z,34.74
2022-08-03T14:39:02.958Z,34.72
2022-08-03T14:41:35.504Z,34.71
2022-08-03T14:44:06.000Z,34.75
2022-08-03T14:46:35.874Z,34.79
2022-08-03T14:50:32.313Z,34.72
2022-08-03T14:51:55.605Z,34.76
2022-08-03T14:54:25.521Z,34.80
2022-08-03T14:56:58.960Z,34.82
2022-08-03T14:59:29.187Z,34.74
2022-08-03T15:02:23.834Z,34.66
2022-08-03T15:04:54.225Z,34.60
2022-08-03T15:07:24.217Z,34.60
2022-08-03T15:09:54.898Z,34.58
2022-08-03T15:12:28.708Z,34.60
2022-08-03T15:14:58.545Z,34.63
2022-08-03T15:17:28.426Z,34.69
2022-08-03T15:20:03.628Z,34.72
2022-08-03T15:22:47.124Z,34.74
2022-08-03T15:26:29.395Z,34.72
2022-08-03T15:28:09.583Z,34.64
2022-08-03T15:30:39.523Z,34.54
2022-08-03T15:33:09.375Z,34.44
2022-08-03T15:35:39.244Z,34.39
2022-08-03T15:38:09.848Z,34.37
2022-08-03T15:40:40.036Z,34.33
2022-08-03T15:43:12.577Z,34.26
2022-08-03T15:45:43.042Z,34.28
2022-08-03T15:48:12.893Z,34.23
2022-08-03T15:50:43.838Z,34.22
2022-08-03T15:53:13.805Z,34.22
2022-08-03T15:55:43.869Z,34.22
2022-08-03T15:59:04.411Z,34.19
2022-08-03T16:01:07.612Z,34.12
2022-08-03T16:03:38.446Z,34.16
2022-08-03T16:06:10.360Z,34.14
2022-08-03T16:08:40.316Z,34.14
2022-08-03T16:11:10.309Z,34.15
2022-08-03T16:14:13.022Z,34.18
2022-08-03T16:16:32.714Z,34.18
2022-08-03T16:19:05.460Z,34.13
2022-08-03T16:21:40.299Z,34.09
2022-08-03T16:24:24.243Z,34.05
2022-08-03T16:26:57.991Z,34.05
2022-08-03T16:29:33.102Z,34.03
2022-08-03T16:32:09.392Z,34.10
2022-08-03T16:34:40.437Z,34.11
2022-08-03T16:37:37.202Z,34.14
2022-08-03T16:40:01.444Z,34.08
2022-08-03T16:42:31.439Z,34.09
2022-08-03T16:45:03.996Z,34.06
2022-08-03T16:47:34.011Z,34.10
2022-08-03T16:50:11.683Z,34.05
2022-08-03T16:52:47.283Z,34.09
2022-08-03T16:55:49.173Z,34.07
2022-08-03T16:58:12.536Z,34.10
2022-08-03T17:00:46.286Z,34.05
2022-08-03T17:03:20.589Z,34.02
2022-08-03T17:05:54.095Z,33.98
2022-08-03T17:08:29.509Z,33.97
2022-08-03T17:11:00.135Z,33.93
2022-08-03T17:13:39.853Z,33.91
2022-08-03T17:16:15.351Z,33.91
2022-08-03T17:18:54.307Z,33.88
2022-08-03T17:21:29.582Z,33.86
2022-08-03T17:24:12.503Z,33.84
2022-08-03T17:26:45.184Z,33.79
2022-08-03T17:29:18.314Z,33.83
2022-08-03T17:31:52.851Z,33.87
2022-08-03T17:34:26.355Z,33.86
2022-08-03T17:37:05.757Z,33.82
2022-08-03T17:39:57.690Z,33.78
2022-08-03T17:42:30.769Z,33.79
2022-08-03T17:45:03.947Z,33.75
2022-08-03T17:47:42.015Z,33.73
2022-08-03T17:50:40.379Z,33.71
2022-08-03T17:53:23.434Z,33.68
2022-08-03T17:56:04.089Z,33.63
2022-08-03T17:58:54.774Z,33.60
2022-08-03T18:02:03.251Z,33.61
2022-08-03T18:04:36.658Z,33.58
2022-08-03T18:07:15.993Z,33.55
2022-08-03T18:10:03.668Z,33.52
2022-08-03T18:12:51.715Z,33.47
2022-08-03T18:15:27.715Z,33.47
2022-08-03T18:20:55.035Z,33.41
2022-08-03T18:23:37.075Z,33.36
2022-08-03T18:26:13.745Z,33.34
2022-08-03T18:28:46.090Z,33.31
2022-08-03T18:32:00.512Z,33.26
2022-08-03T18:34:19.400Z,33.25
2022-08-03T18:37:07.545Z,33.23
2022-08-03T18:39:52.651Z,33.16
2022-08-03T18:42:25.613Z,33.18
2022-08-03T18:44:57.073Z,33.14
2022-08-03T18:47:50.617Z,33.09
2022-08-03T18:50:31.023Z,33.08
2022-08-03T18:53:16.231Z,33.04
2022-08-03T18:56:02.367Z,33.02
2022-08-03T18:58:39.901Z,33.00
2022-08-03T19:01:57.908Z,32.95
2022-08-03T19:04:12.482Z,32.95
2022-08-03T19:06:46.301Z,32.91
2022-08-03T19:09:31.978Z,32.86
2022-08-03T19:12:13.241Z,32.83
2022-08-03T19:15:03.939Z,32.81
2022-08-03T19:17:38.381Z,32.80
2022-08-03T19:20:11.246Z,32.78
2022-08-03T19:22:45.868Z,32.76
2022-08-03T19:25:20.171Z,32.73
2022-08-03T19:28:07.383Z,32.71
2022-08-03T19:30:39.977Z,32.70
2022-08-03T19:33:11.689Z,32.67
2022-08-03T19:35:51.737Z,32.65
2022-08-03T19:38:28.465Z,32.64
2022-08-03T19:41:06.456Z,32.62
2022-08-03T19:43:52.604Z,32.59
2022-08-03T19:46:27.742Z,32.58
2022-08-03T19:49:04.783Z,32.54
2022-08-03T19:52:01.864Z,32.52
2022-08-03T19:54:53.017Z,32.49
2022-08-03T19:57:28.982Z,32.47
2022-08-03T20:00:03.866Z,32.44
2022-08-03T20:02:35.614Z,32.42
2022-08-03T20:05:05.781Z,32.40
2022-08-03T20:07:47.949Z,32.38
2022-08-03T20:10:19.450Z,32.36
2022-08-03T20:12:52.815Z,32.33
2022-08-03T20:15:31.535Z,32.33
2022-08-03T20:18:02.876Z,32.29
2022-08-03T20:20:38.284Z,32.25
2022-08-03T20:23:15.526Z,32.22
2022-08-03T20:25:57.574Z,32.21
2022-08-03T20:28:35.650Z,32.18
2022-08-03T20:31:32.404Z,32.16
2022-08-03T20:34:09.708Z,32.14
2022-08-03T20:36:40.121Z,32.11
2022-08-03T20:39:10.481Z,32.07
2022-08-03T20:41:43.420Z,32.05
2022-08-03T20:44:15.895Z,31.99
2022-08-03T20:46:53.153Z,31.97
2022-08-03T20:49:31.439Z,31.95
2022-08-03T20:52:31.664Z,31.94
2022-08-03T20:55:02.282Z,31.92
2022-08-03T20:57:49.163Z,31.89
2022-08-03T21:00:24.271Z,31.84
2022-08-03T21:02:57.837Z,31.83
2022-08-03T21:05:47.932Z,31.81
2022-08-03T21:08:19.062Z,31.78
2022-08-03T21:10:52.882Z,31.73
2022-08-03T21:13:06.034Z,33.41
2022-08-03T21:13:27.251Z,31.70
2022-08-03T21:16:14.188Z,31.66
2022-08-03T21:18:49.055Z,31.66
2022-08-03T21:21:22.710Z,31.63
2022-08-03T21:23:55.291Z,31.60
2022-08-03T21:26:27.099Z,31.56
2022-08-03T21:29:00.660Z,31.54
2022-08-03T21:31:33.515Z,31.52
2022-08-03T21:34:08.025Z,31.51
2022-08-03T21:36:39.307Z,31.49
2022-08-03T21:39:11.400Z,31.45
2022-08-03T21:41:42.708Z,31.42
2022-08-03T21:44:12.669Z,31.39
2022-08-03T21:46:45.466Z,31.37
2022-08-03T21:50:04.434Z,31.32
2022-08-03T21:52:08.225Z,31.31
2022-08-03T21:54:40.089Z,31.28
2022-08-03T21:57:20.635Z,31.25
2022-08-03T21:59:55.931Z,31.22
2022-08-03T22:02:32.044Z,31.19
2022-08-03T22:05:04.888Z,31.18
2022-08-03T22:07:35.765Z,31.16
2022-08-03T22:10:10.042Z,31.10
2022-08-03T22:12:39.990Z,31.10
2022-08-03T22:15:12.607Z,31.06
2022-08-03T22:17:53.595Z,31.05
2022-08-03T22:20:26.020Z,31.05
2022-08-03T22:22:57.788Z,31.01
2022-08-03T22:25:31.353Z,30.95
2022-08-03T22:28:03.002Z,30.95
2022-08-03T22:30:33.252Z,30.97
2022-08-03T22:33:11.260Z,30.95
2022-08-03T22:35:47.517Z,30.96
2022-08-03T22:38:18.903Z,30.94
2022-08-03T22:40:51.437Z,30.91
2022-08-03T22:43:25.413Z,30.91
2022-08-03T22:46:10.138Z,30.90
2022-08-03T22:48:44.920Z,30.91
2022-08-03T22:51:14.861Z,30.91
2022-08-03T22:53:47.466Z,30.88
2022-08-03T22:56:17.535Z,30.86
2022-08-03T22:58:47.401Z,30.85
2022-08-03T23:01:22.827Z,30.80
2022-08-03T23:04:02.370Z,30.76
2022-08-03T23:06:37.312Z,30.74
2022-08-03T23:09:10.826Z,30.72
2022-08-03T23:11:45.277Z,30.71
2022-08-03T23:14:18.306Z,30.69
2022-08-03T23:16:49.919Z,30.66
2022-08-03T23:19:25.400Z,30.65
2022-08-03T23:22:02.702Z,30.63
2022-08-03T23:24:36.720Z,30.60
2022-08-03T23:27:07.657Z,30.59
2022-08-03T23:29:39.302Z,30.55
2022-08-03T23:32:10.358Z,30.54
2022-08-03T23:34:57.410Z,30.50
2022-08-03T23:37:28.289Z,30.49
2022-08-03T23:40:00.023Z,30.47
2022-08-03T23:42:30.341Z,30.45
2022-08-03T23:45:05.701Z,30.45
2022-08-03T23:47:46.519Z,30.44
2022-08-03T23:50:21.378Z,30.41
2022-08-03T23:53:02.472Z,30.38
2022-08-03T23:55:46.735Z,30.37
2022-08-03T23:58:33.213Z,30.38
